sensor_id;sensor_type;location;lat;lon;timestamp;P1;durP1;ratioP1;P2;durP2;ratioP2
14052;SDS011;7101;51.600;7.310;2023-03-14T00:02:30;7.25;;;2.35;;
14052;SDS011;7101;51.600;7.310;2023-03-14T00:04:57;6.07;;;2.10;;
14052;SDS011;7101;51.600;7.310;2023-03-14T00:07:24;4.75;;;1.88;;
14052;SDS011;7101;51.600;7.310;2023-03-14T00:09:51;7.90;;;2.45;;
14052;SDS011;7101;51.600;7.310;2023-03-14T00:12:18;5.25;;;1.90;;
14052;SDS011;7101;51.600;7.310;2023-03-14T00:14:45;5.38;;;1.80;;
14052;SDS011;7101;51.600;7.310;2023-03-14T00:17:14;4.68;;;1.60;;
14052;SDS011;7101;51.600;7.310;2023-03-14T00:19:40;6.72;;;1.83;;
14052;SDS011;7101;51.600;7.310;2023-03-14T00:22:07;10.38;;;2.08;;
14052;SDS011;7101;51.600;7.310;2023-03-14T00:24:34;6.07;;;1.95;;
14052;SDS011;7101;51.600;7.310;2023-03-14T00:27:01;5.45;;;2.20;;
14052;SDS011;7101;51.600;7.310;2023-03-14T00:29:28;5.82;;;1.80;;
14052;SDS011;7101;51.600;7.310;2023-03-14T00:31:55;9.80;;;2.33;;
14052;SDS011;7101;51.600;7.310;2023-03-14T00:34:23;4.15;;;1.70;;
14052;SDS011;7101;51.600;7.310;2023-03-14T00:36:54;7.55;;;2.20;;
14052;SDS011;7101;51.600;7.310;2023-03-14T00:39:21;6.10;;;1.90;;
14052;SDS011;7101;51.600;7.310;2023-03-14T00:41:48;8.38;;;2.25;;
14052;SDS011;7101;51.600;7.310;2023-03-14T00:44:15;6.05;;;1.98;;
14052;SDS011;7101;51.600;7.310;2023-03-14T00:46:42;5.82;;;1.60;;
14052;SDS011;7101;51.600;7.310;2023-03-14T00:49:09;7.25;;;2.05;;
14052;SDS011;7101;51.600;7.310;2023-03-14T00:51:37;7.47;;;2.25;;
14052;SDS011;7101;51.600;7.310;2023-03-14T00:54:04;7.03;;;2.20;;
14052;SDS011;7101;51.600;7.310;2023-03-14T00:56:31;7.40;;;1.95;;
14052;SDS011;7101;51.600;7.310;2023-03-14T00:58:58;5.57;;;1.90;;
14052;SDS011;7101;51.600;7.310;2023-03-14T01:01:25;6.05;;;1.60;;
14052;SDS011;7101;51.600;7.310;2023-03-14T01:03:52;5.70;;;2.00;;
14052;SDS011;7101;51.600;7.310;2023-03-14T01:06:21;10.40;;;2.42;;
14052;SDS011;7101;51.600;7.310;2023-03-14T01:08:51;4.65;;;1.50;;
14052;SDS011;7101;51.600;7.310;2023-03-14T01:11:20;4.40;;;1.70;;
14052;SDS011;7101;51.600;7.310;2023-03-14T01:13:49;5.60;;;1.42;;
14052;SDS011;7101;51.600;7.310;2023-03-14T01:16:16;5.30;;;1.55;;
14052;SDS011;7101;51.600;7.310;2023-03-14T01:18:44;4.47;;;1.67;;
14052;SDS011;7101;51.600;7.310;2023-03-14T01:21:13;7.13;;;1.73;;
14052;SDS011;7101;51.600;7.310;2023-03-14T01:23:41;7.38;;;1.60;;
14052;SDS011;7101;51.600;7.310;2023-03-14T01:26:10;5.07;;;1.35;;
14052;SDS011;7101;51.600;7.310;2023-03-14T01:28:39;4.70;;;1.33;;
14052;SDS011;7101;51.600;7.310;2023-03-14T01:31:06;5.72;;;1.17;;
14052;SDS011;7101;51.600;7.310;2023-03-14T01:33:34;5.03;;;1.33;;
14052;SDS011;7101;51.600;7.310;2023-03-14T01:36:01;4.03;;;1.10;;
14052;SDS011;7101;51.600;7.310;2023-03-14T01:38:28;2.30;;;1.13;;
14052;SDS011;7101;51.600;7.310;2023-03-14T01:40:55;2.92;;;1.05;;
14052;SDS011;7101;51.600;7.310;2023-03-14T01:43:24;2.45;;;1.10;;
14052;SDS011;7101;51.600;7.310;2023-03-14T01:48:47;2.53;;;1.10;;
14052;SDS011;7101;51.600;7.310;2023-03-14T01:51:21;3.42;;;1.05;;
14052;SDS011;7101;51.600;7.310;2023-03-14T01:53:51;4.95;;;1.30;;
14052;SDS011;7101;51.600;7.310;2023-03-14T01:56:21;2.75;;;0.80;;
14052;SDS011;7101;51.600;7.310;2023-03-14T01:58:50;3.25;;;1.30;;
14052;SDS011;7101;51.600;7.310;2023-03-14T02:01:20;3.92;;;1.33;;
14052;SDS011;7101;51.600;7.310;2023-03-14T02:03:50;6.47;;;1.60;;
14052;SDS011;7101;51.600;7.310;2023-03-14T02:06:21;4.68;;;1.20;;
14052;SDS011;7101;51.600;7.310;2023-03-14T02:08:52;4.28;;;1.10;;
14052;SDS011;7101;51.600;7.310;2023-03-14T02:11:20;6.70;;;1.90;;
14052;SDS011;7101;51.600;7.310;2023-03-14T02:13:49;3.17;;;1.27;;
14052;SDS011;7101;51.600;7.310;2023-03-14T02:16:16;6.60;;;1.42;;
14052;SDS011;7101;51.600;7.310;2023-03-14T02:18:43;5.35;;;1.50;;
14052;SDS011;7101;51.600;7.310;2023-03-14T02:21:12;4.88;;;1.70;;
14052;SDS011;7101;51.600;7.310;2023-03-14T02:23:48;5.68;;;1.73;;
14052;SDS011;7101;51.600;7.310;2023-03-14T02:26:22;6.22;;;1.73;;
14052;SDS011;7101;51.600;7.310;2023-03-14T02:28:55;6.35;;;1.80;;
14052;SDS011;7101;51.600;7.310;2023-03-14T02:31:22;3.13;;;1.35;;
14052;SDS011;7101;51.600;7.310;2023-03-14T02:33:49;7.43;;;1.90;;
14052;SDS011;7101;51.600;7.310;2023-03-14T02:36:17;6.72;;;1.95;;
14052;SDS011;7101;51.600;7.310;2023-03-14T02:38:47;7.05;;;1.67;;
14052;SDS011;7101;51.600;7.310;2023-03-14T02:41:19;6.40;;;1.60;;
14052;SDS011;7101;51.600;7.310;2023-03-14T02:43:46;7.40;;;1.70;;
14052;SDS011;7101;51.600;7.310;2023-03-14T02:46:15;8.52;;;1.50;;
14052;SDS011;7101;51.600;7.310;2023-03-14T02:48:45;8.65;;;1.58;;
14052;SDS011;7101;51.600;7.310;2023-03-14T02:51:15;6.63;;;1.50;;
14052;SDS011;7101;51.600;7.310;2023-03-14T02:53:43;4.53;;;1.20;;
14052;SDS011;7101;51.600;7.310;2023-03-14T02:56:10;2.83;;;1.27;;
14052;SDS011;7101;51.600;7.310;2023-03-14T02:58:37;8.80;;;1.88;;
14052;SDS011;7101;51.600;7.310;2023-03-14T03:01:05;9.02;;;1.98;;
14052;SDS011;7101;51.600;7.310;2023-03-14T03:03:33;7.32;;;1.30;;
14052;SDS011;7101;51.600;7.310;2023-03-14T03:06:02;6.63;;;1.52;;
14052;SDS011;7101;51.600;7.310;2023-03-14T03:08:29;5.30;;;1.60;;
14052;SDS011;7101;51.600;7.310;2023-03-14T03:10:57;6.03;;;1.60;;
14052;SDS011;7101;51.600;7.310;2023-03-14T03:13:24;7.97;;;1.80;;
14052;SDS011;7101;51.600;7.310;2023-03-14T03:15:51;6.40;;;1.65;;
14052;SDS011;7101;51.600;7.310;2023-03-14T03:18:19;7.45;;;2.03;;
14052;SDS011;7101;51.600;7.310;2023-03-14T03:20:47;10.80;;;2.03;;
14052;SDS011;7101;51.600;7.310;2023-03-14T03:23:14;7.85;;;1.90;;
14052;SDS011;7101;51.600;7.310;2023-03-14T03:25:41;6.70;;;1.80;;
14052;SDS011;7101;51.600;7.310;2023-03-14T03:28:08;7.60;;;2.10;;
14052;SDS011;7101;51.600;7.310;2023-03-14T03:30:38;8.85;;;2.05;;
14052;SDS011;7101;51.600;7.310;2023-03-14T03:33:06;7.32;;;1.92;;
14052;SDS011;7101;51.600;7.310;2023-03-14T03:35:33;10.18;;;1.80;;
14052;SDS011;7101;51.600;7.310;2023-03-14T03:38:02;7.28;;;1.65;;
14052;SDS011;7101;51.600;7.310;2023-03-14T03:40:29;7.18;;;1.88;;
14052;SDS011;7101;51.600;7.310;2023-03-14T03:42:56;8.02;;;1.70;;
14052;SDS011;7101;51.600;7.310;2023-03-14T03:45:22;9.13;;;2.13;;
14052;SDS011;7101;51.600;7.310;2023-03-14T03:47:49;6.32;;;2.00;;
14052;SDS011;7101;51.600;7.310;2023-03-14T03:50:16;12.23;;;2.13;;
14052;SDS011;7101;51.600;7.310;2023-03-14T03:52:43;7.28;;;1.90;;
14052;SDS011;7101;51.600;7.310;2023-03-14T03:55:12;8.25;;;1.90;;
14052;SDS011;7101;51.600;7.310;2023-03-14T03:57:38;4.90;;;1.80;;
14052;SDS011;7101;51.600;7.310;2023-03-14T04:00:06;9.55;;;2.13;;
14052;SDS011;7101;51.600;7.310;2023-03-14T04:02:36;10.70;;;2.08;;
14052;SDS011;7101;51.600;7.310;2023-03-14T04:05:04;11.27;;;2.25;;
14052;SDS011;7101;51.600;7.310;2023-03-14T04:07:31;10.40;;;1.90;;
14052;SDS011;7101;51.600;7.310;2023-03-14T04:09:58;7.80;;;1.90;;
14052;SDS011;7101;51.600;7.310;2023-03-14T04:12:27;6.47;;;2.05;;
14052;SDS011;7101;51.600;7.310;2023-03-14T04:14:54;6.38;;;1.73;;
14052;SDS011;7101;51.600;7.310;2023-03-14T04:17:22;9.90;;;1.98;;
14052;SDS011;7101;51.600;7.310;2023-03-14T04:19:49;7.65;;;1.70;;
14052;SDS011;7101;51.600;7.310;2023-03-14T04:22:18;8.13;;;1.90;;
14052;SDS011;7101;51.600;7.310;2023-03-14T04:24:45;10.32;;;1.98;;
14052;SDS011;7101;51.600;7.310;2023-03-14T04:27:12;9.80;;;1.75;;
14052;SDS011;7101;51.600;7.310;2023-03-14T04:29:41;6.40;;;1.60;;
14052;SDS011;7101;51.600;7.310;2023-03-14T04:32:07;6.43;;;1.88;;
14052;SDS011;7101;51.600;7.310;2023-03-14T04:34:34;6.35;;;1.83;;
14052;SDS011;7101;51.600;7.310;2023-03-14T04:37:01;6.35;;;1.75;;
14052;SDS011;7101;51.600;7.310;2023-03-14T04:39:28;5.55;;;1.55;;
14052;SDS011;7101;51.600;7.310;2023-03-14T04:41:56;5.07;;;1.20;;
14052;SDS011;7101;51.600;7.310;2023-03-14T04:44:23;3.65;;;1.35;;
14052;SDS011;7101;51.600;7.310;2023-03-14T04:46:52;5.25;;;1.42;;
14052;SDS011;7101;51.600;7.310;2023-03-14T04:49:19;6.47;;;1.33;;
14052;SDS011;7101;51.600;7.310;2023-03-14T04:51:46;3.97;;;1.10;;
14052;SDS011;7101;51.600;7.310;2023-03-14T04:54:13;5.28;;;1.00;;
14052;SDS011;7101;51.600;7.310;2023-03-14T04:56:39;3.40;;;1.20;;
14052;SDS011;7101;51.600;7.310;2023-03-14T04:59:07;3.13;;;0.90;;
14052;SDS011;7101;51.600;7.310;2023-03-14T05:01:34;2.45;;;0.82;;
14052;SDS011;7101;51.600;7.310;2023-03-14T05:04:04;1.90;;;1.05;;
14052;SDS011;7101;51.600;7.310;2023-03-14T05:06:32;2.83;;;0.70;;
14052;SDS011;7101;51.600;7.310;2023-03-14T05:08:59;2.05;;;0.77;;
14052;SDS011;7101;51.600;7.310;2023-03-14T05:11:27;1.92;;;0.70;;
14052;SDS011;7101;51.600;7.310;2023-03-14T05:13:54;1.52;;;0.70;;
14052;SDS011;7101;51.600;7.310;2023-03-14T05:16:21;1.15;;;0.60;;
14052;SDS011;7101;51.600;7.310;2023-03-14T05:18:48;1.42;;;0.70;;
14052;SDS011;7101;51.600;7.310;2023-03-14T05:21:16;1.55;;;0.55;;
14052;SDS011;7101;51.600;7.310;2023-03-14T05:23:44;2.47;;;0.80;;
14052;SDS011;7101;51.600;7.310;2023-03-14T05:26:11;2.05;;;0.85;;
14052;SDS011;7101;51.600;7.310;2023-03-14T05:28:38;1.67;;;0.55;;
14052;SDS011;7101;51.600;7.310;2023-03-14T05:31:06;2.00;;;0.77;;
14052;SDS011;7101;51.600;7.310;2023-03-14T05:33:33;1.45;;;0.80;;
14052;SDS011;7101;51.600;7.310;2023-03-14T05:36:00;1.52;;;0.70;;
14052;SDS011;7101;51.600;7.310;2023-03-14T05:38:28;4.78;;;0.90;;
14052;SDS011;7101;51.600;7.310;2023-03-14T05:40:55;2.05;;;0.70;;
14052;SDS011;7101;51.600;7.310;2023-03-14T05:43:21;0.90;;;0.65;;
14052;SDS011;7101;51.600;7.310;2023-03-14T05:45:48;2.90;;;0.70;;
14052;SDS011;7101;51.600;7.310;2023-03-14T05:48:15;1.95;;;0.82;;
14052;SDS011;7101;51.600;7.310;2023-03-14T05:50:43;1.88;;;0.77;;
14052;SDS011;7101;51.600;7.310;2023-03-14T05:53:10;1.67;;;0.68;;
14052;SDS011;7101;51.600;7.310;2023-03-14T05:55:38;1.60;;;0.60;;
14052;SDS011;7101;51.600;7.310;2023-03-14T05:58:05;3.30;;;0.63;;
14052;SDS011;7101;51.600;7.310;2023-03-14T06:00:32;2.60;;;0.70;;
14052;SDS011;7101;51.600;7.310;2023-03-14T06:02:59;1.48;;;0.68;;
14052;SDS011;7101;51.600;7.310;2023-03-14T06:05:26;1.65;;;0.80;;
14052;SDS011;7101;51.600;7.310;2023-03-14T06:07:52;1.15;;;0.77;;
14052;SDS011;7101;51.600;7.310;2023-03-14T06:10:19;3.88;;;0.90;;
14052;SDS011;7101;51.600;7.310;2023-03-14T06:12:47;1.48;;;0.80;;
14052;SDS011;7101;51.600;7.310;2023-03-14T06:15:14;2.10;;;1.05;;
14052;SDS011;7101;51.600;7.310;2023-03-14T06:17:41;1.38;;;0.93;;
14052;SDS011;7101;51.600;7.310;2023-03-14T06:20:08;2.92;;;1.10;;
14052;SDS011;7101;51.600;7.310;2023-03-14T06:22:36;2.40;;;1.10;;
14052;SDS011;7101;51.600;7.310;2023-03-14T06:25:04;3.95;;;1.40;;
14052;SDS011;7101;51.600;7.310;2023-03-14T06:27:32;2.50;;;1.50;;
14052;SDS011;7101;51.600;7.310;2023-03-14T06:30:00;2.40;;;1.60;;
14052;SDS011;7101;51.600;7.310;2023-03-14T06:32:29;4.97;;;1.98;;
14052;SDS011;7101;51.600;7.310;2023-03-14T06:34:56;4.22;;;1.75;;
14052;SDS011;7101;51.600;7.310;2023-03-14T06:37:26;4.28;;;2.00;;
14052;SDS011;7101;51.600;7.310;2023-03-14T06:39:53;2.83;;;1.70;;
14052;SDS011;7101;51.600;7.310;2023-03-14T06:42:21;5.05;;;1.77;;
14052;SDS011;7101;51.600;7.310;2023-03-14T06:44:48;3.30;;;1.60;;
14052;SDS011;7101;51.600;7.310;2023-03-14T06:47:16;5.82;;;2.20;;
14052;SDS011;7101;51.600;7.310;2023-03-14T06:49:43;4.07;;;2.08;;
14052;SDS011;7101;51.600;7.310;2023-03-14T06:52:12;6.07;;;2.53;;
14052;SDS011;7101;51.600;7.310;2023-03-14T06:54:39;4.88;;;1.92;;
14052;SDS011;7101;51.600;7.310;2023-03-14T06:57:06;3.40;;;2.03;;
14052;SDS011;7101;51.600;7.310;2023-03-14T06:59:33;5.32;;;2.00;;
14052;SDS011;7101;51.600;7.310;2023-03-14T07:02:00;4.82;;;1.80;;
14052;SDS011;7101;51.600;7.310;2023-03-14T07:04:28;2.42;;;1.55;;
14052;SDS011;7101;51.600;7.310;2023-03-14T07:06:55;2.83;;;1.70;;
14052;SDS011;7101;51.600;7.310;2023-03-14T07:09:22;3.13;;;1.75;;
14052;SDS011;7101;51.600;7.310;2023-03-14T07:11:49;4.20;;;1.60;;
14052;SDS011;7101;51.600;7.310;2023-03-14T07:14:16;3.42;;;1.30;;
14052;SDS011;7101;51.600;7.310;2023-03-14T07:16:43;2.63;;;1.70;;
14052;SDS011;7101;51.600;7.310;2023-03-14T07:19:10;1.63;;;1.20;;
14052;SDS011;7101;51.600;7.310;2023-03-14T07:21:38;1.95;;;1.33;;
14052;SDS011;7101;51.600;7.310;2023-03-14T07:24:05;2.38;;;1.35;;
14052;SDS011;7101;51.600;7.310;2023-03-14T07:26:32;1.80;;;1.00;;
14052;SDS011;7101;51.600;7.310;2023-03-14T07:28:59;4.55;;;1.27;;
14052;SDS011;7101;51.600;7.310;2023-03-14T07:31:28;2.75;;;1.00;;
14052;SDS011;7101;51.600;7.310;2023-03-14T07:33:55;4.22;;;0.98;;
14052;SDS011;7101;51.600;7.310;2023-03-14T07:36:22;2.05;;;1.05;;
14052;SDS011;7101;51.600;7.310;2023-03-14T07:38:50;1.92;;;1.02;;
14052;SDS011;7101;51.600;7.310;2023-03-14T07:41:17;3.78;;;1.00;;
14052;SDS011;7101;51.600;7.310;2023-03-14T07:43:45;3.63;;;1.27;;
14052;SDS011;7101;51.600;7.310;2023-03-14T07:46:12;2.20;;;0.90;;
14052;SDS011;7101;51.600;7.310;2023-03-14T07:48:39;2.45;;;0.90;;
14052;SDS011;7101;51.600;7.310;2023-03-14T07:51:06;1.40;;;1.00;;
14052;SDS011;7101;51.600;7.310;2023-03-14T07:53:33;1.92;;;1.02;;
14052;SDS011;7101;51.600;7.310;2023-03-14T07:56:01;2.75;;;1.00;;
14052;SDS011;7101;51.600;7.310;2023-03-14T07:58:28;3.38;;;1.02;;
14052;SDS011;7101;51.600;7.310;2023-03-14T08:00:55;3.05;;;0.90;;
14052;SDS011;7101;51.600;7.310;2023-03-14T08:03:21;1.60;;;1.00;;
14052;SDS011;7101;51.600;7.310;2023-03-14T08:05:48;1.20;;;0.80;;
14052;SDS011;7101;51.600;7.310;2023-03-14T08:08:16;1.20;;;0.80;;
14052;SDS011;7101;51.600;7.310;2023-03-14T08:10:43;2.42;;;0.80;;
14052;SDS011;7101;51.600;7.310;2023-03-14T08:13:12;1.75;;;1.08;;
14052;SDS011;7101;51.600;7.310;2023-03-14T08:15:40;1.90;;;0.80;;
14052;SDS011;7101;51.600;7.310;2023-03-14T08:18:07;1.13;;;0.80;;
14052;SDS011;7101;51.600;7.310;2023-03-14T08:20:33;1.55;;;0.70;;
14052;SDS011;7101;51.600;7.310;2023-03-14T08:23:01;1.02;;;0.88;;
14052;SDS011;7101;51.600;7.310;2023-03-14T08:25:28;0.95;;;0.80;;
14052;SDS011;7101;51.600;7.310;2023-03-14T08:27:55;1.77;;;0.82;;
14052;SDS011;7101;51.600;7.310;2023-03-14T08:30:24;1.02;;;0.90;;
14052;SDS011;7101;51.600;7.310;2023-03-14T08:32:51;2.78;;;1.17;;
14052;SDS011;7101;51.600;7.310;2023-03-14T08:35:18;2.33;;;1.23;;
14052;SDS011;7101;51.600;7.310;2023-03-14T08:37:47;3.65;;;1.15;;
14052;SDS011;7101;51.600;7.310;2023-03-14T08:40:14;1.13;;;1.02;;
14052;SDS011;7101;51.600;7.310;2023-03-14T08:42:42;1.35;;;1.05;;
14052;SDS011;7101;51.600;7.310;2023-03-14T08:45:10;1.25;;;1.15;;
14052;SDS011;7101;51.600;7.310;2023-03-14T08:47:39;2.25;;;1.02;;
14052;SDS011;7101;51.600;7.310;2023-03-14T08:50:06;3.72;;;1.20;;
14052;SDS011;7101;51.600;7.310;2023-03-14T08:52:38;1.63;;;1.20;;
14052;SDS011;7101;51.600;7.310;2023-03-14T08:55:06;3.50;;;1.92;;
14052;SDS011;7101;51.600;7.310;2023-03-14T08:57:34;4.82;;;2.00;;
14052;SDS011;7101;51.600;7.310;2023-03-14T09:00:02;6.20;;;2.58;;
14052;SDS011;7101;51.600;7.310;2023-03-14T09:02:34;1.45;;;1.30;;
14052;SDS011;7101;51.600;7.310;2023-03-14T09:05:02;1.98;;;1.40;;
14052;SDS011;7101;51.600;7.310;2023-03-14T09:07:29;1.50;;;1.40;;
14052;SDS011;7101;51.600;7.310;2023-03-14T09:09:56;1.70;;;1.30;;
14052;SDS011;7101;51.600;7.310;2023-03-14T09:12:23;2.10;;;1.45;;
14052;SDS011;7101;51.600;7.310;2023-03-14T09:14:49;4.55;;;1.20;;
14052;SDS011;7101;51.600;7.310;2023-03-14T09:17:16;2.22;;;1.40;;
14052;SDS011;7101;51.600;7.310;2023-03-14T09:19:43;1.67;;;1.48;;
14052;SDS011;7101;51.600;7.310;2023-03-14T09:22:11;1.60;;;1.40;;
14052;SDS011;7101;51.600;7.310;2023-03-14T09:24:39;6.53;;;1.52;;
14052;SDS011;7101;51.600;7.310;2023-03-14T09:27:06;4.60;;;1.42;;
14052;SDS011;7101;51.600;7.310;2023-03-14T09:29:33;6.47;;;3.25;;
14052;SDS011;7101;51.600;7.310;2023-03-14T09:32:00;2.78;;;2.00;;
14052;SDS011;7101;51.600;7.310;2023-03-14T09:34:28;2.05;;;1.63;;
14052;SDS011;7101;51.600;7.310;2023-03-14T09:36:55;2.65;;;2.10;;
14052;SDS011;7101;51.600;7.310;2023-03-14T09:39:24;4.30;;;2.17;;
14052;SDS011;7101;51.600;7.310;2023-03-14T09:41:51;4.13;;;1.45;;
14052;SDS011;7101;51.600;7.310;2023-03-14T09:44:22;3.17;;;0.90;;
14052;SDS011;7101;51.600;7.310;2023-03-14T09:46:53;1.70;;;0.77;;
14052;SDS011;7101;51.600;7.310;2023-03-14T09:49:23;1.08;;;0.68;;
14052;SDS011;7101;51.600;7.310;2023-03-14T09:51:54;0.80;;;0.52;;
14052;SDS011;7101;51.600;7.310;2023-03-14T09:54:26;0.57;;;0.57;;
14052;SDS011;7101;51.600;7.310;2023-03-14T09:56:58;0.80;;;0.60;;
14052;SDS011;7101;51.600;7.310;2023-03-14T09:59:25;1.90;;;0.52;;
14052;SDS011;7101;51.600;7.310;2023-03-14T10:01:55;0.80;;;0.60;;
14052;SDS011;7101;51.600;7.310;2023-03-14T10:04:24;2.05;;;0.85;;
14052;SDS011;7101;51.600;7.310;2023-03-14T10:06:52;1.85;;;0.70;;
14052;SDS011;7101;51.600;7.310;2023-03-14T10:09:19;3.08;;;0.80;;
14052;SDS011;7101;51.600;7.310;2023-03-14T10:11:52;2.53;;;0.98;;
14052;SDS011;7101;51.600;7.310;2023-03-14T10:14:28;1.52;;;0.82;;
14052;SDS011;7101;51.600;7.310;2023-03-14T10:16:59;1.10;;;0.70;;
14052;SDS011;7101;51.600;7.310;2023-03-14T10:19:32;1.25;;;0.60;;
14052;SDS011;7101;51.600;7.310;2023-03-14T10:22:00;1.63;;;0.60;;
14052;SDS011;7101;51.600;7.310;2023-03-14T10:24:29;0.70;;;0.60;;
14052;SDS011;7101;51.600;7.310;2023-03-14T10:26:59;1.08;;;0.70;;
14052;SDS011;7101;51.600;7.310;2023-03-14T10:29:27;2.55;;;0.60;;
14052;SDS011;7101;51.600;7.310;2023-03-14T10:31:58;1.58;;;0.68;;
14052;SDS011;7101;51.600;7.310;2023-03-14T10:34:27;3.67;;;1.10;;
14052;SDS011;7101;51.600;7.310;2023-03-14T10:36:56;1.02;;;0.90;;
14052;SDS011;7101;51.600;7.310;2023-03-14T10:39:27;2.30;;;1.20;;
14052;SDS011;7101;51.600;7.310;2023-03-14T10:42:04;1.20;;;0.90;;
14052;SDS011;7101;51.600;7.310;2023-03-14T10:44:37;1.63;;;0.90;;
14052;SDS011;7101;51.600;7.310;2023-03-14T10:47:06;2.83;;;1.15;;
14052;SDS011;7101;51.600;7.310;2023-03-14T10:49:41;3.38;;;1.13;;
14052;SDS011;7101;51.600;7.310;2023-03-14T10:52:13;3.30;;;1.00;;
14052;SDS011;7101;51.600;7.310;2023-03-14T10:54:47;2.83;;;1.17;;
14052;SDS011;7101;51.600;7.310;2023-03-14T10:57:21;4.63;;;0.90;;
14052;SDS011;7101;51.600;7.310;2023-03-14T10:59:48;2.88;;;1.02;;
14052;SDS011;7101;51.600;7.310;2023-03-14T11:02:21;3.30;;;1.10;;
14052;SDS011;7101;51.600;7.310;2023-03-14T11:05:02;3.83;;;1.10;;
14052;SDS011;7101;51.600;7.310;2023-03-14T11:07:47;2.28;;;0.95;;
14052;SDS011;7101;51.600;7.310;2023-03-14T11:10:16;1.70;;;0.57;;
14052;SDS011;7101;51.600;7.310;2023-03-14T11:12:51;2.25;;;0.75;;
14052;SDS011;7101;51.600;7.310;2023-03-14T11:15:28;2.55;;;0.80;;
14052;SDS011;7101;51.600;7.310;2023-03-14T11:18:09;1.67;;;0.73;;
14052;SDS011;7101;51.600;7.310;2023-03-14T11:20:46;2.38;;;0.80;;
14052;SDS011;7101;51.600;7.310;2023-03-14T11:23:20;0.50;;;0.40;;
14052;SDS011;7101;51.600;7.310;2023-03-14T11:25:51;2.28;;;0.68;;
14052;SDS011;7101;51.600;7.310;2023-03-14T11:28:28;1.92;;;0.63;;
14052;SDS011;7101;51.600;7.310;2023-03-14T11:31:03;1.00;;;0.80;;
14052;SDS011;7101;51.600;7.310;2023-03-14T11:33:44;1.15;;;0.60;;
14052;SDS011;7101;51.600;7.310;2023-03-14T11:36:15;0.80;;;0.65;;
14052;SDS011;7101;51.600;7.310;2023-03-14T11:38:46;1.55;;;0.70;;
14052;SDS011;7101;51.600;7.310;2023-03-14T11:41:15;1.98;;;0.60;;
14052;SDS011;7101;51.600;7.310;2023-03-14T11:43:48;2.03;;;0.60;;
14052;SDS011;7101;51.600;7.310;2023-03-14T11:46:19;3.95;;;0.80;;
14052;SDS011;7101;51.600;7.310;2023-03-14T11:48:53;3.67;;;0.70;;
14052;SDS011;7101;51.600;7.310;2023-03-14T11:51:29;1.35;;;0.70;;
14052;SDS011;7101;51.600;7.310;2023-03-14T11:54:00;1.83;;;0.80;;
14052;SDS011;7101;51.600;7.310;2023-03-14T11:56:34;4.00;;;0.70;;
14052;SDS011;7101;51.600;7.310;2023-03-14T11:59:12;1.38;;;0.55;;
14052;SDS011;7101;51.600;7.310;2023-03-14T12:01:49;0.73;;;0.60;;
14052;SDS011;7101;51.600;7.310;2023-03-14T12:04:28;2.30;;;0.80;;
14052;SDS011;7101;51.600;7.310;2023-03-14T12:07:08;1.92;;;0.93;;
14052;SDS011;7101;51.600;7.310;2023-03-14T12:09:43;2.42;;;0.75;;
14052;SDS011;7101;51.600;7.310;2023-03-14T12:12:12;3.00;;;0.93;;
14052;SDS011;7101;51.600;7.310;2023-03-14T12:14:46;3.20;;;0.85;;
14052;SDS011;7101;51.600;7.310;2023-03-14T12:17:21;2.97;;;1.02;;
14052;SDS011;7101;51.600;7.310;2023-03-14T12:19:59;2.83;;;1.17;;
14052;SDS011;7101;51.600;7.310;2023-03-14T12:22:31;2.75;;;1.15;;
14052;SDS011;7101;51.600;7.310;2023-03-14T12:25:02;3.72;;;1.02;;
14052;SDS011;7101;51.600;7.310;2023-03-14T12:27:43;2.60;;;0.90;;
14052;SDS011;7101;51.600;7.310;2023-03-14T12:30:25;3.08;;;1.08;;
14052;SDS011;7101;51.600;7.310;2023-03-14T12:36:11;6.28;;;1.15;;
14052;SDS011;7101;51.600;7.310;2023-03-14T12:39:11;5.40;;;1.23;;
14052;SDS011;7101;51.600;7.310;2023-03-14T12:41:49;3.72;;;1.10;;
14052;SDS011;7101;51.600;7.310;2023-03-14T12:50:40;4.80;;;1.33;;
14052;SDS011;7101;51.600;7.310;2023-03-14T12:56:25;3.90;;;1.50;;
14052;SDS011;7101;51.600;7.310;2023-03-14T12:59:13;5.20;;;2.03;;
14052;SDS011;7101;51.600;7.310;2023-03-14T13:01:53;3.92;;;1.60;;
14052;SDS011;7101;51.600;7.310;2023-03-14T13:04:26;6.78;;;1.88;;
14052;SDS011;7101;51.600;7.310;2023-03-14T13:06:57;11.52;;;2.20;;
14052;SDS011;7101;51.600;7.310;2023-03-14T13:12:48;12.65;;;2.33;;
14052;SDS011;7101;51.600;7.310;2023-03-14T13:15:19;12.95;;;2.35;;
14052;SDS011;7101;51.600;7.310;2023-03-14T13:17:53;9.65;;;2.15;;
14052;SDS011;7101;51.600;7.310;2023-03-14T13:20:24;10.27;;;2.13;;
14052;SDS011;7101;51.600;7.310;2023-03-14T13:22:57;9.55;;;2.17;;
14052;SDS011;7101;51.600;7.310;2023-03-14T13:25:24;15.10;;;2.30;;
14052;SDS011;7101;51.600;7.310;2023-03-14T13:28:00;10.75;;;2.30;;
14052;SDS011;7101;51.600;7.310;2023-03-14T13:30:28;12.80;;;2.40;;
14052;SDS011;7101;51.600;7.310;2023-03-14T13:33:12;11.52;;;2.38;;
14052;SDS011;7101;51.600;7.310;2023-03-14T13:35:42;11.30;;;2.78;;
14052;SDS011;7101;51.600;7.310;2023-03-14T13:38:16;12.13;;;2.65;;
14052;SDS011;7101;51.600;7.310;2023-03-14T13:40:45;13.35;;;2.58;;
14052;SDS011;7101;51.600;7.310;2023-03-14T13:43:18;12.85;;;2.90;;
14052;SDS011;7101;51.600;7.310;2023-03-14T13:45:50;15.95;;;2.47;;
14052;SDS011;7101;51.600;7.310;2023-03-14T13:48:19;19.88;;;3.08;;
14052;SDS011;7101;51.600;7.310;2023-03-14T13:50:51;18.88;;;2.97;;
14052;SDS011;7101;51.600;7.310;2023-03-14T13:53:21;20.55;;;4.72;;
14052;SDS011;7101;51.600;7.310;2023-03-14T13:55:53;15.02;;;3.42;;
14052;SDS011;7101;51.600;7.310;2023-03-14T13:58:21;15.35;;;3.88;;
14052;SDS011;7101;51.600;7.310;2023-03-14T14:01:01;15.77;;;3.33;;
14052;SDS011;7101;51.600;7.310;2023-03-14T14:03:31;12.68;;;3.05;;
14052;SDS011;7101;51.600;7.310;2023-03-14T14:06:04;12.52;;;3.00;;
14052;SDS011;7101;51.600;7.310;2023-03-14T14:08:36;10.75;;;2.80;;
14052;SDS011;7101;51.600;7.310;2023-03-14T14:11:09;13.75;;;2.90;;
14052;SDS011;7101;51.600;7.310;2023-03-14T14:13:47;13.27;;;2.85;;
14052;SDS011;7101;51.600;7.310;2023-03-14T14:16:15;11.60;;;3.20;;
14052;SDS011;7101;51.600;7.310;2023-03-14T14:18:47;15.63;;;2.50;;
14052;SDS011;7101;51.600;7.310;2023-03-14T14:21:14;13.75;;;2.90;;
14052;SDS011;7101;51.600;7.310;2023-03-14T14:23:43;13.10;;;3.13;;
14052;SDS011;7101;51.600;7.310;2023-03-14T14:26:13;8.50;;;2.33;;
14052;SDS011;7101;51.600;7.310;2023-03-14T14:28:43;12.68;;;2.58;;
14052;SDS011;7101;51.600;7.310;2023-03-14T14:31:18;15.35;;;2.63;;
14052;SDS011;7101;51.600;7.310;2023-03-14T14:33:53;9.32;;;2.20;;
14052;SDS011;7101;51.600;7.310;2023-03-14T14:36:22;9.32;;;2.00;;
14052;SDS011;7101;51.600;7.310;2023-03-14T14:38:52;11.13;;;2.13;;
14052;SDS011;7101;51.600;7.310;2023-03-14T14:41:25;11.32;;;2.38;;
14052;SDS011;7101;51.600;7.310;2023-03-14T14:43:54;7.38;;;1.85;;
14052;SDS011;7101;51.600;7.310;2023-03-14T14:46:22;12.18;;;2.50;;
14052;SDS011;7101;51.600;7.310;2023-03-14T14:48:50;7.00;;;1.85;;
14052;SDS011;7101;51.600;7.310;2023-03-14T14:51:32;10.20;;;2.50;;
14052;SDS011;7101;51.600;7.310;2023-03-14T14:54:10;11.98;;;2.30;;
14052;SDS011;7101;51.600;7.310;2023-03-14T14:56:45;11.05;;;2.55;;
14052;SDS011;7101;51.600;7.310;2023-03-14T14:59:18;12.90;;;2.20;;
14052;SDS011;7101;51.600;7.310;2023-03-14T15:01:47;10.90;;;2.35;;
14052;SDS011;7101;51.600;7.310;2023-03-14T15:04:16;14.98;;;2.35;;
14052;SDS011;7101;51.600;7.310;2023-03-14T15:06:43;8.35;;;2.00;;
14052;SDS011;7101;51.600;7.310;2023-03-14T15:09:14;11.10;;;2.28;;
14052;SDS011;7101;51.600;7.310;2023-03-14T15:11:42;3.95;;;1.50;;
14052;SDS011;7101;51.600;7.310;2023-03-14T15:14:10;7.97;;;1.85;;
14052;SDS011;7101;51.600;7.310;2023-03-14T15:16:36;10.63;;;2.20;;
14052;SDS011;7101;51.600;7.310;2023-03-14T15:19:08;9.73;;;1.92;;
14052;SDS011;7101;51.600;7.310;2023-03-14T15:21:37;14.38;;;2.35;;
14052;SDS011;7101;51.600;7.310;2023-03-14T15:24:10;6.85;;;1.83;;
14052;SDS011;7101;51.600;7.310;2023-03-14T15:26:39;6.70;;;1.83;;
14052;SDS011;7101;51.600;7.310;2023-03-14T15:29:06;10.20;;;2.33;;
14052;SDS011;7101;51.600;7.310;2023-03-14T15:31:37;7.43;;;1.83;;
14052;SDS011;7101;51.600;7.310;2023-03-14T15:34:04;7.15;;;1.70;;